sensor_id;sensor_type;location;lat;lon;timestamp;temperature;humidity
14993;DHT22;7592;51.088;13.732;2022-08-30T01:14:14;14.40;99.90
14993;DHT22;7592;51.088;13.732;2022-08-30T01:24:18;14.10;99.90
14993;DHT22;7592;51.088;13.732;2022-08-30T01:29:14;14.10;99.90
14993;DHT22;7592;51.088;13.732;2022-08-30T01:34:08;14.10;99.90
14993;DHT22;7592;51.088;13.732;2022-08-30T01:39:01;14.00;99.90
14993;DHT22;7592;51.088;13.732;2022-08-30T01:43:58;14.00;99.90
14993;DHT22;7592;51.088;13.732;2022-08-30T01:48:53;14.00;99.90
14993;DHT22;7592;51.088;13.732;2022-08-30T01:53:46;13.90;99.90
14993;DHT22;7592;51.088;13.732;2022-08-30T01:58:39;13.80;99.90
14993;DHT22;7592;51.088;13.732;2022-08-30T02:03:32;13.70;99.90
14993;DHT22;7592;51.088;13.732;2022-08-30T02:08:26;13.70;99.90
14993;DHT22;7592;51.088;13.732;2022-08-30T02:13:20;13.70;99.90
14993;DHT22;7592;51.088;13.732;2022-08-30T02:18:12;13.80;99.90
14993;DHT22;7592;51.088;13.732;2022-08-30T02:23:06;13.80;99.90
14993;DHT22;7592;51.088;13.732;2022-08-30T02:27:58;13.90;99.90
14993;DHT22;7592;51.088;13.732;2022-08-30T02:32:50;13.80;99.90
14993;DHT22;7592;51.088;13.732;2022-08-30T02:37:43;13.80;99.90
14993;DHT22;7592;51.088;13.732;2022-08-30T02:42:35;13.70;99.90
14993;DHT22;7592;51.088;13.732;2022-08-30T02:47:27;13.70;99.90
14993;DHT22;7592;51.088;13.732;2022-08-30T02:52:20;13.70;99.90
14993;DHT22;7592;51.088;13.732;2022-08-30T02:57:18;13.70;99.90
14993;DHT22;7592;51.088;13.732;2022-08-30T03:02:11;13.70;99.90
14993;DHT22;7592;51.088;13.732;2022-08-30T03:07:07;13.60;99.90
14993;DHT22;7592;51.088;13.732;2022-08-30T03:11:59;13.60;99.90
14993;DHT22;7592;51.088;13.732;2022-08-30T03:16:53;13.50;99.90
14993;DHT22;7592;51.088;13.732;2022-08-30T03:21:45;13.40;99.90
14993;DHT22;7592;51.088;13.732;2022-08-30T03:26:37;13.40;99.90
14993;DHT22;7592;51.088;13.732;2022-08-30T03:31:36;13.40;99.90
14993;DHT22;7592;51.088;13.732;2022-08-30T03:36:43;13.30;99.90
14993;DHT22;7592;51.088;13.732;2022-08-30T03:41:37;13.30;99.90
14993;DHT22;7592;51.088;13.732;2022-08-30T03:46:30;13.40;99.90
14993;DHT22;7592;51.088;13.732;2022-08-30T03:51:27;13.30;99.90
14993;DHT22;7592;51.088;13.732;2022-08-30T03:56:20;13.30;99.90
14993;DHT22;7592;51.088;13.732;2022-08-30T04:01:12;13.30;99.90
14993;DHT22;7592;51.088;13.732;2022-08-30T04:06:04;13.30;99.90
14993;DHT22;7592;51.088;13.732;2022-08-30T04:10:57;13.30;99.90
14993;DHT22;7592;51.088;13.732;2022-08-30T04:15:50;13.20;99.90
14993;DHT22;7592;51.088;13.732;2022-08-30T04:20:42;13.20;99.90
14993;DHT22;7592;51.088;13.732;2022-08-30T04:25:36;13.20;99.90
14993;DHT22;7592;51.088;13.732;2022-08-30T04:30:29;13.30;99.90
14993;DHT22;7592;51.088;13.732;2022-08-30T04:35:21;13.40;99.90
14993;DHT22;7592;51.088;13.732;2022-08-30T04:40:14;13.50;99.90
14993;DHT22;7592;51.088;13.732;2022-08-30T04:45:10;13.60;99.90
14993;DHT22;7592;51.088;13.732;2022-08-30T04:50:04;13.80;99.90
14993;DHT22;7592;51.088;13.732;2022-08-30T04:54:57;14.00;99.90
14993;DHT22;7592;51.088;13.732;2022-08-30T04:59:49;14.20;99.90
14993;DHT22;7592;51.088;13.732;2022-08-30T05:04:42;14.30;99.90
14993;DHT22;7592;51.088;13.732;2022-08-30T05:09:54;14.50;99.90
14993;DHT22;7592;51.088;13.732;2022-08-30T05:14:47;14.70;99.90
14993;DHT22;7592;51.088;13.732;2022-08-30T05:19:39;14.80;99.90
14993;DHT22;7592;51.088;13.732;2022-08-30T05:24:34;14.80;99.90
14993;DHT22;7592;51.088;13.732;2022-08-30T05:29:34;14.90;99.90
14993;DHT22;7592;51.088;13.732;2022-08-30T05:34:30;14.90;99.90
14993;DHT22;7592;51.088;13.732;2022-08-30T05:39:22;15.00;99.90
14993;DHT22;7592;51.088;13.732;2022-08-30T05:44:14;15.10;99.90
14993;DHT22;7592;51.088;13.732;2022-08-30T05:49:06;15.30;99.90
14993;DHT22;7592;51.088;13.732;2022-08-30T05:53:59;15.70;99.90
14993;DHT22;7592;51.088;13.732;2022-08-30T05:58:54;16.00;99.90
14993;DHT22;7592;51.088;13.732;2022-08-30T06:03:47;16.20;99.90
14993;DHT22;7592;51.088;13.732;2022-08-30T06:08:40;17.50;99.90
14993;DHT22;7592;51.088;13.732;2022-08-30T06:13:34;17.60;99.90
14993;DHT22;7592;51.088;13.732;2022-08-30T06:18:27;20.00;99.90
14993;DHT22;7592;51.088;13.732;2022-08-30T06:23:19;24.60;99.90
14993;DHT22;7592;51.088;13.732;2022-08-30T06:28:12;28.40;99.90
14993;DHT22;7592;51.088;13.732;2022-08-30T06:33:05;31.60;87.80
14993;DHT22;7592;51.088;13.732;2022-08-30T06:37:58;32.60;76.90
14993;DHT22;7592;51.088;13.732;2022-08-30T06:42:50;34.60;70.70
14993;DHT22;7592;51.088;13.732;2022-08-30T06:47:44;36.20;63.50
14993;DHT22;7592;51.088;13.732;2022-08-30T06:52:38;37.20;57.90
14993;DHT22;7592;51.088;13.732;2022-08-30T06:57:30;37.80;57.00
14993;DHT22;7592;51.088;13.732;2022-08-30T07:02:24;39.20;55.50
14993;DHT22;7592;51.088;13.732;2022-08-30T07:07:16;40.10;52.40
14993;DHT22;7592;51.088;13.732;2022-08-30T07:12:10;40.30;51.50
14993;DHT22;7592;51.088;13.732;2022-08-30T07:17:04;40.30;51.10
14993;DHT22;7592;51.088;13.732;2022-08-30T07:22:18;41.00;50.90
14993;DHT22;7592;51.088;13.732;2022-08-30T07:27:11;40.90;49.60
14993;DHT22;7592;51.088;13.732;2022-08-30T07:32:04;41.40;49.00
14993;DHT22;7592;51.088;13.732;2022-08-30T07:36:57;41.80;48.80
14993;DHT22;7592;51.088;13.732;2022-08-30T07:41:49;41.00;49.70
14993;DHT22;7592;51.088;13.732;2022-08-30T07:46:42;41.70;48.30
14993;DHT22;7592;51.088;13.732;2022-08-30T07:51:35;42.10;47.90
14993;DHT22;7592;51.088;13.732;2022-08-30T07:56:27;42.40;47.40
14993;DHT22;7592;51.088;13.732;2022-08-30T08:01:22;42.80;47.20
14993;DHT22;7592;51.088;13.732;2022-08-30T08:06:17;43.20;46.50
14993;DHT22;7592;51.088;13.732;2022-08-30T08:11:16;42.80;47.50
14993;DHT22;7592;51.088;13.732;2022-08-30T08:16:09;43.00;46.70
14993;DHT22;7592;51.088;13.732;2022-08-30T08:21:02;42.80;46.20
14993;DHT22;7592;51.088;13.732;2022-08-30T08:25:55;42.60;46.30
14993;DHT22;7592;51.088;13.732;2022-08-30T08:30:48;42.80;46.50
14993;DHT22;7592;51.088;13.732;2022-08-30T08:35:41;42.70;46.20
14993;DHT22;7592;51.088;13.732;2022-08-30T08:51:01;43.00;45.90
14993;DHT22;7592;51.088;13.732;2022-08-30T08:56:16;42.80;45.60
14993;DHT22;7592;51.088;13.732;2022-08-30T09:01:13;39.40;48.30
14993;DHT22;7592;51.088;13.732;2022-08-30T09:11:21;31.30;60.10
14993;DHT22;7592;51.088;13.732;2022-08-30T09:21:44;29.60;64.50
14993;DHT22;7592;51.088;13.732;2022-08-30T09:26:43;28.70;65.80
14993;DHT22;7592;51.088;13.732;2022-08-30T09:31:49;28.20;67.60
14993;DHT22;7592;51.088;13.732;2022-08-30T09:37:01;32.30;61.30
14993;DHT22;7592;51.088;13.732;2022-08-30T09:42:14;36.20;54.50
14993;DHT22;7592;51.088;13.732;2022-08-30T09:47:27;37.00;52.40
14993;DHT22;7592;51.088;13.732;2022-08-30T09:52:31;34.10;56.40
14993;DHT22;7592;51.088;13.732;2022-08-30T10:17:58;41.10;47.90
14993;DHT22;7592;51.088;13.732;2022-08-30T10:23:11;41.70;45.80
14993;DHT22;7592;51.088;13.732;2022-08-30T10:33:39;36.90;49.10
14993;DHT22;7592;51.088;13.732;2022-08-30T10:38:45;34.20;53.90
14993;DHT22;7592;51.088;13.732;2022-08-30T10:43:53;33.90;53.70
14993;DHT22;7592;51.088;13.732;2022-08-30T10:48:47;32.60;53.30
14993;DHT22;7592;51.088;13.732;2022-08-30T10:53:59;36.00;49.10
14993;DHT22;7592;51.088;13.732;2022-08-30T10:58:53;36.60;48.10
14993;DHT22;7592;51.088;13.732;2022-08-30T11:04:21;34.20;50.70
14993;DHT22;7592;51.088;13.732;2022-08-30T11:14:29;35.10;51.40
14993;DHT22;7592;51.088;13.732;2022-08-30T11:35:42;31.60;56.20
14993;DHT22;7592;51.088;13.732;2022-08-30T11:40:53;31.70;56.00
14993;DHT22;7592;51.088;13.732;2022-08-30T12:01:38;30.50;58.60
14993;DHT22;7592;51.088;13.732;2022-08-30T12:16:42;28.70;61.50
14993;DHT22;7592;51.088;13.732;2022-08-30T12:21:57;28.40;63.00
14993;DHT22;7592;51.088;13.732;2022-08-30T12:26:51;27.70;68.50
14993;DHT22;7592;51.088;13.732;2022-08-30T12:31:59;27.70;69.70
14993;DHT22;7592;51.088;13.732;2022-08-30T12:37:08;27.80;68.00
14993;DHT22;7592;51.088;13.732;2022-08-30T12:42:24;27.60;67.70
14993;DHT22;7592;51.088;13.732;2022-08-30T14:45:07;25.10;72.70
14993;DHT22;7592;51.088;13.732;2022-08-30T14:49:59;25.10;73.20
14993;DHT22;7592;51.088;13.732;2022-08-30T14:54:54;25.20;73.50
14993;DHT22;7592;51.088;13.732;2022-08-30T14:59:52;25.20;73.40
14993;DHT22;7592;51.088;13.732;2022-08-30T15:04:44;25.20;74.40
14993;DHT22;7592;51.088;13.732;2022-08-30T15:09:42;25.40;74.40
14993;DHT22;7592;51.088;13.732;2022-08-30T15:14:35;25.60;74.10
14993;DHT22;7592;51.088;13.732;2022-08-30T15:19:29;25.40;75.40
14993;DHT22;7592;51.088;13.732;2022-08-30T15:24:23;25.20;76.90
14993;DHT22;7592;51.088;13.732;2022-08-30T15:29:20;24.90;78.30
14993;DHT22;7592;51.088;13.732;2022-08-30T15:34:16;24.50;80.40
14993;DHT22;7592;51.088;13.732;2022-08-30T15:39:10;24.00;82.00
14993;DHT22;7592;51.088;13.732;2022-08-30T15:44:04;23.80;84.10
14993;DHT22;7592;51.088;13.732;2022-08-30T15:49:02;23.60;85.90
14993;DHT22;7592;51.088;13.732;2022-08-30T15:53:55;23.60;87.70
14993;DHT22;7592;51.088;13.732;2022-08-30T15:58:48;23.50;90.00
14993;DHT22;7592;51.088;13.732;2022-08-30T16:03:44;23.40;91.30
14993;DHT22;7592;51.088;13.732;2022-08-30T16:08:37;23.40;92.10
14993;DHT22;7592;51.088;13.732;2022-08-30T16:13:29;23.40;93.20
14993;DHT22;7592;51.088;13.732;2022-08-30T16:18:23;23.30;94.90
14993;DHT22;7592;51.088;13.732;2022-08-30T16:23:17;23.30;96.60
14993;DHT22;7592;51.088;13.732;2022-08-30T16:28:10;23.20;97.30
14993;DHT22;7592;51.088;13.732;2022-08-30T16:33:02;23.20;98.10
14993;DHT22;7592;51.088;13.732;2022-08-30T16:37:56;23.20;98.80
14993;DHT22;7592;51.088;13.732;2022-08-30T16:42:49;23.10;99.90
14993;DHT22;7592;51.088;13.732;2022-08-30T16:47:42;23.00;99.90
14993;DHT22;7592;51.088;13.732;2022-08-30T16:52:35;22.80;99.90
14993;DHT22;7592;51.088;13.732;2022-08-30T16:57:30;22.70;99.90
14993;DHT22;7592;51.088;13.732;2022-08-30T17:02:22;22.60;99.90
14993;DHT22;7592;51.088;13.732;2022-08-30T17:07:15;22.60;99.90
14993;DHT22;7592;51.088;13.732;2022-08-30T17:12:13;22.50;99.90
14993;DHT22;7592;51.088;13.732;2022-08-30T17:17:06;22.40;99.90
14993;DHT22;7592;51.088;13.732;2022-08-30T17:21:58;22.40;99.90
14993;DHT22;7592;51.088;13.732;2022-08-30T17:26:52;22.40;99.90
14993;DHT22;7592;51.088;13.732;2022-08-30T17:31:45;22.30;99.90
14993;DHT22;7592;51.088;13.732;2022-08-30T17:36:42;22.10;99.90
14993;DHT22;7592;51.088;13.732;2022-08-30T17:41:34;21.90;99.90
14993;DHT22;7592;51.088;13.732;2022-08-30T17:46:28;21.70;99.90
14993;DHT22;7592;51.088;13.732;2022-08-30T17:51:21;21.60;99.90
14993;DHT22;7592;51.088;13.732;2022-08-30T17:56:16;21.40;99.90
14993;DHT22;7592;51.088;13.732;2022-08-30T18:01:11;21.20;99.90
14993;DHT22;7592;51.088;13.732;2022-08-30T18:06:05;21.00;99.90
14993;DHT22;7592;51.088;13.732;2022-08-30T18:10:58;20.80;99.90
14993;DHT22;7592;51.088;13.732;2022-08-30T18:15:50;20.70;99.90
14993;DHT22;7592;51.088;13.732;2022-08-30T18:20:43;20.60;99.90
14993;DHT22;7592;51.088;13.732;2022-08-30T18:25:36;20.40;99.90
14993;DHT22;7592;51.088;13.732;2022-08-30T18:30:29;20.40;99.90
14993;DHT22;7592;51.088;13.732;2022-08-30T18:35:30;20.20;99.90
14993;DHT22;7592;51.088;13.732;2022-08-30T18:40:27;20.10;99.90
14993;DHT22;7592;51.088;13.732;2022-08-30T18:45:21;20.00;99.90
14993;DHT22;7592;51.088;13.732;2022-08-30T18:50:15;19.80;99.90
14993;DHT22;7592;51.088;13.732;2022-08-30T18:55:09;19.70;99.90
14993;DHT22;7592;51.088;13.732;2022-08-30T19:00:03;19.70;99.90
14993;DHT22;7592;51.088;13.732;2022-08-30T19:04:56;19.60;99.90
14993;DHT22;7592;51.088;13.732;2022-08-30T19:09:50;19.50;99.90
14993;DHT22;7592;51.088;13.732;2022-08-30T19:14:42;19.30;99.90
14993;DHT22;7592;51.088;13.732;2022-08-30T19:19:35;19.20;99.90
14993;DHT22;7592;51.088;13.732;2022-08-30T19:24:41;19.10;99.90
14993;DHT22;7592;51.088;13.732;2022-08-30T19:29:34;18.90;99.90
14993;DHT22;7592;51.088;13.732;2022-08-30T19:34:26;18.90;99.90
14993;DHT22;7592;51.088;13.732;2022-08-30T19:39:19;18.80;99.90
14993;DHT22;7592;51.088;13.732;2022-08-30T19:44:13;18.70;99.90
14993;DHT22;7592;51.088;13.732;2022-08-30T19:49:05;18.70;99.90
14993;DHT22;7592;51.088;13.732;2022-08-30T19:54:02;18.60;99.90
14993;DHT22;7592;51.088;13.732;2022-08-30T19:58:55;18.50;99.90
14993;DHT22;7592;51.088;13.732;2022-08-30T20:03:48;18.50;99.90
14993;DHT22;7592;51.088;13.732;2022-08-30T20:08:45;18.50;99.90
14993;DHT22;7592;51.088;13.732;2022-08-30T20:13:42;18.50;99.90
14993;DHT22;7592;51.088;13.732;2022-08-30T20:18:35;18.50;99.90
14993;DHT22;7592;51.088;13.732;2022-08-30T20:23:27;18.40;99.90
14993;DHT22;7592;51.088;13.732;2022-08-30T20:28:26;18.40;99.90
14993;DHT22;7592;51.088;13.732;2022-08-30T20:33:19;18.30;99.90
14993;DHT22;7592;51.088;13.732;2022-08-30T20:38:12;18.30;99.90
14993;DHT22;7592;51.088;13.732;2022-08-30T20:43:11;18.20;99.90
14993;DHT22;7592;51.088;13.732;2022-08-30T20:48:05;18.10;99.90
14993;DHT22;7592;51.088;13.732;2022-08-30T20:52:57;18.10;99.90
14993;DHT22;7592;51.088;13.732;2022-08-30T20:57:50;18.00;99.90
14993;DHT22;7592;51.088;13.732;2022-08-30T21:02:42;17.90;99.90
14993;DHT22;7592;51.088;13.732;2022-08-30T21:07:39;18.00;99.90
14993;DHT22;7592;51.088;13.732;2022-08-30T23:09:18;16.20;99.90
14993;DHT22;7592;51.088;13.732;2022-08-30T23:14:10;16.10;99.90
14993;DHT22;7592;51.088;13.732;2022-08-30T23:19:03;16.10;99.90
14993;DHT22;7592;51.088;13.732;2022-08-30T23:23:57;16.00;99.90
14993;DHT22;7592;51.088;13.732;2022-08-30T23:29:09;15.90;99.90
14993;DHT22;7592;51.088;13.732;2022-08-30T23:34:20;15.90;99.90
14993;DHT22;7592;51.088;13.732;2022-08-30T23:39:31;15.90;99.90
14993;DHT22;7592;51.088;13.732;2022-08-30T23:44:42;15.80;99.90
14993;DHT22;7592;51.088;13.732;2022-08-30T23:49:53;15.80;99.90
14993;DHT22;7592;51.088;13.732;2022-08-30T23:55:05;15.70;99.90
